Time;durP1;ratioP1;P1;durP2;ratioP2;P2;SDS_P1;SDS_P2;PMS_P1;PMS_P2;Temp;Humidity;BMP_temperature;BMP_pressure;BME280_temperature;BME280_humidity;BME280_pressure;Samples;Min_cycle;Max_cycle;Signal;HPM_P1;HPM_P2
2023/03/18 00:00:26;;;;;;;10.97;7.23;;;;;;;;;;6261333;28;20296;-58
2023/03/18 00:03:27;;;;;;;9.87;7.30;;;;;;;;;;6228950;28;20194;-59
2023/03/18 00:06:28;;;;;;;12.40;7.37;;;;;;;;;;6248663;28;20245;-59
2023/03/18 00:09:30;;;;;;;13.90;7.63;;;;;;;;;;6266064;28;20194;-59
2023/03/18 00:12:32;;;;;;;12.17;7.77;;;;;;;;;;6231468;28;20193;-58
2023/03/18 00:15:33;;;;;;;10.73;7.53;;;;;;;;;;6250869;28;20187;-59
2023/03/18 00:18:34;;;;;;;9.87;7.23;;;;;;;;;;6251463;28;20237;-59
2023/03/18 00:21:35;;;;;;;10.83;7.67;;;;;;;;;;6236279;28;20197;-58
2023/03/18 00:24:36;;;;;;;10.40;7.27;;;;;;;;;;6255221;28;20195;-58
2023/03/18 00:27:37;;;;;;;12.13;7.53;;;;;;;;;;6224325;28;20195;-57
2023/03/18 00:30:40;;;;;;;10.50;7.27;;;;;;;;;;6255411;28;20321;-58
2023/03/18 00:33:44;;;;;;;10.87;7.03;;;;;;;;;;6263229;28;20248;-59
2023/03/18 00:36:47;;;;;;;11.70;7.03;;;;;;;;;;6227218;28;20259;-59
2023/03/18 00:39:49;;;;;;;10.80;7.27;;;;;;;;;;6242293;28;20194;-59
2023/03/18 00:42:56;;;;;;;16.40;9.00;;;;;;;;;;6252237;28;20252;-59
2023/03/18 00:45:57;;;;;;;13.77;8.00;;;;;;;;;;6263111;28;20280;-59
2023/03/18 00:48:59;;;;;;;13.53;8.83;;;;;;;;;;6248396;28;20193;-59
2023/03/18 00:52:00;;;;;;;17.67;8.23;;;;;;;;;;6250891;28;20218;-59
2023/03/18 00:55:02;;;;;;;13.87;8.87;;;;;;;;;;6260969;28;20205;-59
2023/03/18 00:58:03;;;;;;;13.47;9.07;;;;;;;;;;6260385;28;20223;-59
2023/03/18 01:01:05;;;;;;;11.43;6.70;;;;;;;;;;6236532;28;20275;-60
2023/03/18 01:04:06;;;;;;;11.10;7.13;;;;;;;;;;6223485;28;20191;-59
2023/03/18 01:07:07;;;;;;;11.87;7.20;;;;;;;;;;6223373;28;20187;-59
2023/03/18 01:10:09;;;;;;;10.67;7.73;;;;;;;;;;6232478;28;20225;-58
2023/03/18 01:13:10;;;;;;;14.77;8.67;;;;;;;;;;6246967;28;20186;-58
2023/03/18 01:16:12;;;;;;;11.77;7.00;;;;;;;;;;6263809;28;20261;-59
2023/03/18 01:19:14;;;;;;;11.93;7.07;;;;;;;;;;6243411;28;20197;-58
2023/03/18 01:22:15;;;;;;;7.23;5.63;;;;;;;;;;6228439;28;20194;-59
2023/03/18 01:25:17;;;;;;;12.10;8.10;;;;;;;;;;6242645;28;20191;-59
2023/03/18 01:28:18;;;;;;;16.13;7.73;;;;;;;;;;6230237;28;20262;-60
2023/03/18 01:31:19;;;;;;;11.43;7.27;;;;;;;;;;6227451;28;20260;-58
2023/03/18 01:34:20;;;;;;;13.77;8.20;;;;;;;;;;6228613;28;20195;-59
2023/03/18 01:37:21;;;;;;;13.30;7.47;;;;;;;;;;6250492;28;20218;-59
2023/03/18 01:40:23;;;;;;;10.27;7.03;;;;;;;;;;6254815;28;20224;-58
2023/03/18 01:43:29;;;;;;;10.20;6.33;;;;;;;;;;6235914;28;20214;-58
2023/03/18 01:46:32;;;;;;;10.30;6.93;;;;;;;;;;6252882;28;20602;-59
2023/03/18 01:49:38;;;;;;;9.73;6.90;;;;;;;;;;6254474;28;20204;-59
2023/03/18 01:52:40;;;;;;;9.27;6.53;;;;;;;;;;6244660;28;20646;-60
2023/03/18 01:55:41;;;;;;;8.67;6.80;;;;;;;;;;6248702;28;20194;-58
2023/03/18 01:58:44;;;;;;;8.93;6.17;;;;;;;;;;6234192;28;20187;-59
2023/03/18 02:01:58;;;;;;;9.10;6.30;;;;;;;;;;6234936;28;20211;-58
2023/03/18 02:05:01;;;;;;;9.07;6.30;;;;;;;;;;6261003;28;20228;-59
2023/03/18 02:08:02;;;;;;;8.67;5.77;;;;;;;;;;6243441;28;20192;-59
2023/03/18 02:11:04;;;;;;;9.83;6.77;;;;;;;;;;6261606;28;20801;-59
2023/03/18 02:14:05;;;;;;;11.50;7.13;;;;;;;;;;6241977;28;20201;-59
2023/03/18 02:17:15;;;;;;;11.13;7.27;;;;;;;;;;6244213;28;20190;-59
2023/03/18 02:20:24;;;;;;;7.70;6.00;;;;;;;;;;6276467;28;20198;-59
2023/03/18 02:23:38;;;;;;;7.60;6.00;;;;;;;;;;6281503;28;20198;-59
2023/03/18 02:26:39;;;;;;;9.87;6.73;;;;;;;;;;6232683;28;20275;-59
2023/03/18 02:29:42;;;;;;;9.23;6.73;;;;;;;;;;6251492;28;20312;-59
2023/03/18 02:32:45;;;;;;;8.70;6.00;;;;;;;;;;6246624;28;20242;-59
2023/03/18 02:35:46;;;;;;;11.03;6.63;;;;;;;;;;6233279;28;20279;-59
2023/03/18 02:38:48;;;;;;;9.17;6.83;;;;;;;;;;6245333;28;20198;-59
2023/03/18 02:41:49;;;;;;;9.90;6.47;;;;;;;;;;6254302;28;20634;-59
2023/03/18 02:44:50;;;;;;;8.60;6.93;;;;;;;;;;6251704;28;20217;-60
2023/03/18 02:47:52;;;;;;;9.70;6.43;;;;;;;;;;6234163;28;20201;-60
2023/03/18 02:50:54;;;;;;;10.93;7.07;;;;;;;;;;6228515;28;20303;-58
2023/03/18 02:53:56;;;;;;;9.77;6.43;;;;;;;;;;6260502;28;20237;-59
2023/03/18 02:56:58;;;;;;;7.87;6.10;;;;;;;;;;6273058;28;20210;-59
2023/03/18 02:59:59;;;;;;;9.20;6.43;;;;;;;;;;6217094;28;20199;-58
2023/03/18 03:03:00;;;;;;;9.60;6.30;;;;;;;;;;6224173;28;20199;-58
2023/03/18 03:06:02;;;;;;;8.70;6.40;;;;;;;;;;6238273;28;20194;-58
2023/03/18 03:09:04;;;;;;;8.63;6.00;;;;;;;;;;6230948;28;20191;-58
2023/03/18 03:12:05;;;;;;;9.83;6.37;;;;;;;;;;6250515;28;20216;-59
2023/03/18 03:15:07;;;;;;;13.53;7.37;;;;;;;;;;6260618;28;20199;-59
2023/03/18 03:18:09;;;;;;;10.57;7.07;;;;;;;;;;6250851;28;20205;-59
2023/03/18 03:21:10;;;;;;;8.97;6.20;;;;;;;;;;6267039;28;20191;-60
2023/03/18 03:24:11;;;;;;;9.83;6.37;;;;;;;;;;6250294;28;20256;-59
2023/03/18 03:27:12;;;;;;;8.97;6.20;;;;;;;;;;6233465;28;20194;-59
2023/03/18 03:30:14;;;;;;;9.00;6.63;;;;;;;;;;6265944;28;20245;-59
2023/03/18 03:33:15;;;;;;;9.57;6.17;;;;;;;;;;6225954;28;20195;-59
2023/03/18 03:36:17;;;;;;;9.73;5.80;;;;;;;;;;6257588;28;20188;-59
2023/03/18 03:39:18;;;;;;;9.63;6.30;;;;;;;;;;6249568;28;20196;-59
2023/03/18 03:42:19;;;;;;;7.63;6.37;;;;;;;;;;6231181;28;20205;-58
2023/03/18 03:45:20;;;;;;;9.07;6.30;;;;;;;;;;6266264;28;20194;-59
2023/03/18 03:48:22;;;;;;;9.23;6.27;;;;;;;;;;6249504;28;20396;-59
2023/03/18 03:51:23;;;;;;;11.37;6.87;;;;;;;;;;6261297;28;20224;-59
2023/03/18 03:54:24;;;;;;;11.67;6.77;;;;;;;;;;6245316;28;20195;-58
2023/03/18 03:57:26;;;;;;;8.23;6.30;;;;;;;;;;6225403;28;20199;-59
2023/03/18 04:00:27;;;;;;;8.77;5.97;;;;;;;;;;6227579;28;20197;-59
2023/03/18 04:03:28;;;;;;;8.43;5.77;;;;;;;;;;6263699;28;20194;-59
2023/03/18 04:06:29;;;;;;;9.30;5.97;;;;;;;;;;6236650;28;20200;-59
2023/03/18 04:09:30;;;;;;;10.93;6.27;;;;;;;;;;6228757;28;20198;-57
2023/03/18 04:12:32;;;;;;;8.60;6.53;;;;;;;;;;6261172;28;20210;-59
2023/03/18 04:15:33;;;;;;;7.40;5.43;;;;;;;;;;6251978;28;20203;-59
2023/03/18 04:18:34;;;;;;;10.10;7.20;;;;;;;;;;6244749;28;20187;-59
2023/03/18 04:21:35;;;;;;;10.93;6.63;;;;;;;;;;6266624;28;20205;-59
2023/03/18 04:24:37;;;;;;;10.87;6.17;;;;;;;;;;6245421;28;20190;-59
2023/03/18 04:27:38;;;;;;;10.00;6.40;;;;;;;;;;6239831;28;20197;-58
2023/03/18 04:30:39;;;;;;;7.73;5.67;;;;;;;;;;6244595;28;20244;-59
2023/03/18 04:33:40;;;;;;;9.73;6.70;;;;;;;;;;6224572;28;20305;-59
2023/03/18 04:36:41;;;;;;;8.03;6.33;;;;;;;;;;6254104;28;20232;-59
2023/03/18 04:39:43;;;;;;;8.70;5.83;;;;;;;;;;6232788;28;20210;-58
2023/03/18 04:42:46;;;;;;;9.80;6.13;;;;;;;;;;6246875;28;20194;-59
2023/03/18 04:45:47;;;;;;;7.40;5.87;;;;;;;;;;6231842;28;20288;-59
2023/03/18 04:48:48;;;;;;;9.47;6.67;;;;;;;;;;6228275;28;20186;-59
2023/03/18 04:51:50;;;;;;;9.40;6.60;;;;;;;;;;6239499;28;20292;-60
2023/03/18 04:54:51;;;;;;;8.37;5.77;;;;;;;;;;6261842;28;20198;-60
2023/03/18 04:57:52;;;;;;;12.10;6.07;;;;;;;;;;6254150;28;20213;-60
2023/03/18 05:00:53;;;;;;;10.07;6.17;;;;;;;;;;6230839;28;20285;-59
2023/03/18 05:03:54;;;;;;;8.30;6.07;;;;;;;;;;6220276;28;20306;-58
2023/03/18 05:06:55;;;;;;;12.47;6.87;;;;;;;;;;6252778;28;20198;-58
2023/03/18 05:09:57;;;;;;;9.20;6.23;;;;;;;;;;6261028;28;20332;-58
2023/03/18 05:12:58;;;;;;;8.17;5.63;;;;;;;;;;6228053;28;20239;-58
2023/03/18 05:15:59;;;;;;;12.47;6.07;;;;;;;;;;6263790;28;20194;-59
2023/03/18 05:19:00;;;;;;;9.17;5.50;;;;;;;;;;6227408;28;20196;-59
2023/03/18 05:22:01;;;;;;;8.50;6.83;;;;;;;;;;6258577;28;20198;-56
2023/03/18 05:25:03;;;;;;;10.57;6.67;;;;;;;;;;6257250;28;20289;-57
2023/03/18 05:28:04;;;;;;;8.43;6.17;;;;;;;;;;6227614;28;20252;-55
2023/03/18 05:31:06;;;;;;;9.33;5.80;;;;;;;;;;6217604;28;20235;-56
2023/03/18 05:34:07;;;;;;;10.40;6.27;;;;;;;;;;6257467;28;20240;-57
2023/03/18 05:37:10;;;;;;;9.13;6.00;;;;;;;;;;6221913;28;20245;-58
2023/03/18 05:40:11;;;;;;;7.97;5.90;;;;;;;;;;6241793;28;20280;-55
2023/03/18 05:43:12;;;;;;;8.93;6.70;;;;;;;;;;6238399;28;20330;-57
2023/03/18 05:46:13;;;;;;;7.37;5.77;;;;;;;;;;6226157;28;20190;-57
2023/03/18 05:49:15;;;;;;;9.43;6.17;;;;;;;;;;6229174;28;20185;-58
2023/03/18 05:52:16;;;;;;;8.23;6.17;;;;;;;;;;6225616;28;20225;-56
2023/03/18 05:55:17;;;;;;;7.90;5.60;;;;;;;;;;6226093;28;20265;-58
2023/03/18 05:58:19;;;;;;;8.43;6.10;;;;;;;;;;6260784;28;20194;-58
2023/03/18 06:01:21;;;;;;;9.60;6.23;;;;;;;;;;6236798;28;20200;-57
2023/03/18 06:04:22;;;;;;;10.67;6.53;;;;;;;;;;6242548;28;20672;-58
2023/03/18 06:07:23;;;;;;;8.17;6.07;;;;;;;;;;6235393;28;20214;-57
2023/03/18 06:10:24;;;;;;;7.77;5.90;;;;;;;;;;6236273;28;20239;-55
2023/03/18 06:13:25;;;;;;;9.27;6.33;;;;;;;;;;6237501;28;20300;-56
2023/03/18 06:16:27;;;;;;;8.53;6.30;;;;;;;;;;6225908;28;20194;-58
2023/03/18 06:19:30;;;;;;;7.57;6.10;;;;;;;;;;6222805;28;20210;-58
2023/03/18 06:22:31;;;;;;;10.50;6.43;;;;;;;;;;6228544;28;20206;-57
2023/03/18 06:25:32;;;;;;;10.17;5.97;;;;;;;;;;6263268;28;20241;-59
2023/03/18 06:28:34;;;;;;;7.90;6.07;;;;;;;;;;6228326;28;20243;-58
2023/03/18 06:31:36;;;;;;;10.53;6.33;;;;;;;;;;6251565;28;20241;-57
2023/03/18 06:34:37;;;;;;;9.37;6.40;;;;;;;;;;6223163;28;20647;-57
2023/03/18 06:37:39;;;;;;;9.47;6.77;;;;;;;;;;6261271;28;20598;-58
2023/03/18 06:40:40;;;;;;;10.87;6.63;;;;;;;;;;6247749;28;20210;-57
2023/03/18 06:43:41;;;;;;;11.30;7.57;;;;;;;;;;6229159;28;20200;-57
2023/03/18 06:46:42;;;;;;;12.57;7.17;;;;;;;;;;6235213;28;20200;-59
2023/03/18 06:49:43;;;;;;;9.37;6.30;;;;;;;;;;6230438;28;20201;-57
2023/03/18 06:52:44;;;;;;;11.97;7.00;;;;;;;;;;6245391;28;20213;-58
2023/03/18 06:55:45;;;;;;;10.27;6.40;;;;;;;;;;6232360;28;20239;-58
2023/03/18 06:58:46;;;;;;;13.27;6.87;;;;;;;;;;6225211;28;20198;-58
2023/03/18 07:01:48;;;;;;;9.97;7.50;;;;;;;;;;6235038;28;20216;-54
2023/03/18 07:04:49;;;;;;;10.57;7.20;;;;;;;;;;6266848;28;20202;-57
2023/03/18 07:07:50;;;;;;;8.37;6.50;;;;;;;;;;6227920;28;20198;-58
2023/03/18 07:10:53;;;;;;;7.60;6.43;;;;;;;;;;6236891;28;20211;-59
2023/03/18 07:13:54;;;;;;;8.70;6.40;;;;;;;;;;6250294;28;20183;-59
2023/03/18 07:16:55;;;;;;;12.47;7.50;;;;;;;;;;6228603;28;20282;-59
2023/03/18 07:19:56;;;;;;;9.77;6.97;;;;;;;;;;6250312;28;20183;-59
2023/03/18 07:22:58;;;;;;;9.67;6.93;;;;;;;;;;6255195;28;20659;-59
2023/03/18 07:25:59;;;;;;;10.67;7.50;;;;;;;;;;6249548;28;20226;-60
2023/03/18 07:29:00;;;;;;;10.93;7.10;;;;;;;;;;6251196;28;20209;-59
2023/03/18 07:32:02;;;;;;;11.07;7.43;;;;;;;;;;6265619;28;20283;-59
2023/03/18 07:35:04;;;;;;;11.60;7.47;;;;;;;;;;6265763;28;20206;-58
2023/03/18 07:38:05;;;;;;;10.03;7.10;;;;;;;;;;6234189;28;20201;-58
2023/03/18 07:41:07;;;;;;;14.57;7.73;;;;;;;;;;6256873;28;20194;-58
2023/03/18 07:44:08;;;;;;;9.67;7.23;;;;;;;;;;6231476;28;20187;-58
2023/03/18 07:47:09;;;;;;;12.67;7.57;;;;;;;;;;6251528;28;20225;-58
2023/03/18 07:50:11;;;;;;;9.37;7.07;;;;;;;;;;6265728;28;20216;-58
2023/03/18 07:53:12;;;;;;;11.87;8.43;;;;;;;;;;6233042;28;20222;-57
2023/03/18 07:56:13;;;;;;;10.57;7.80;;;;;;;;;;6260311;28;20273;-58
2023/03/18 07:59:14;;;;;;;9.17;7.20;;;;;;;;;;6233104;28;20277;-57
2023/03/18 08:02:15;;;;;;;16.40;7.67;;;;;;;;;;6226313;28;20195;-58
2023/03/18 08:05:18;;;;;;;12.70;8.17;;;;;;;;;;6244045;28;20237;-56
2023/03/18 08:08:20;;;;;;;10.57;7.00;;;;;;;;;;6234251;28;20198;-58
2023/03/18 08:11:21;;;;;;;9.13;6.43;;;;;;;;;;6247614;28;20242;-57
2023/03/18 08:14:22;;;;;;;12.10;8.50;;;;;;;;;;6268331;28;20244;-60
2023/03/18 08:17:23;;;;;;;10.00;7.73;;;;;;;;;;6228284;28;20296;-52
2023/03/18 08:20:25;;;;;;;11.70;6.50;;;;;;;;;;6252926;28;20198;-55
2023/03/18 08:23:26;;;;;;;11.57;7.60;;;;;;;;;;6235649;28;20212;-55
2023/03/18 08:26:27;;;;;;;7.93;6.70;;;;;;;;;;6263543;28;20203;-54
2023/03/18 08:29:28;;;;;;;11.90;7.33;;;;;;;;;;6263626;28;20244;-55
2023/03/18 08:32:29;;;;;;;11.07;7.53;;;;;;;;;;6260603;28;20225;-56
2023/03/18 08:35:30;;;;;;;9.10;6.53;;;;;;;;;;6249152;28;20186;-57
2023/03/18 08:38:31;;;;;;;7.70;6.53;;;;;;;;;;6250878;28;20240;-57
2023/03/18 08:41:33;;;;;;;9.43;6.93;;;;;;;;;;6258592;28;20225;-54
2023/03/18 08:44:34;;;;;;;9.70;6.93;;;;;;;;;;6219500;28;20233;-53
2023/03/18 08:47:35;;;;;;;12.33;7.77;;;;;;;;;;6228816;28;20217;-51
2023/03/18 08:50:36;;;;;;;8.70;6.33;;;;;;;;;;6248233;28;20214;-54
2023/03/18 08:53:37;;;;;;;8.23;6.40;;;;;;;;;;6228281;28;20252;-49
2023/03/18 08:56:38;;;;;;;9.00;5.80;;;;;;;;;;6265143;28;20252;-56
2023/03/18 08:59:39;;;;;;;9.27;6.20;;;;;;;;;;6264626;28;20186;-56
2023/03/18 09:02:40;;;;;;;11.20;7.50;;;;;;;;;;6225929;28;20199;-54
2023/03/18 09:05:42;;;;;;;10.37;7.27;;;;;;;;;;6219947;28;20205;-55
2023/03/18 09:08:43;;;;;;;9.03;6.27;;;;;;;;;;6265505;28;20274;-58
2023/03/18 09:11:45;;;;;;;13.47;6.50;;;;;;;;;;6220317;28;20225;-52
2023/03/18 09:14:46;;;;;;;9.07;6.80;;;;;;;;;;6227478;28;20195;-53
2023/03/18 09:17:47;;;;;;;9.23;7.10;;;;;;;;;;6223417;28;20195;-54
2023/03/18 09:20:49;;;;;;;12.13;6.80;;;;;;;;;;6259813;28;20195;-51
2023/03/18 09:23:51;;;;;;;11.23;7.47;;;;;;;;;;6253198;28;20195;-51
2023/03/18 09:26:52;;;;;;;10.53;6.60;;;;;;;;;;6253497;28;20187;-53
2023/03/18 09:29:53;;;;;;;8.47;6.77;;;;;;;;;;6258642;28;20241;-52
2023/03/18 09:32:55;;;;;;;14.80;7.93;;;;;;;;;;6225917;28;20644;-55
2023/03/18 09:35:56;;;;;;;8.73;6.80;;;;;;;;;;6227001;28;20198;-56
2023/03/18 09:38:59;;;;;;;10.33;6.90;;;;;;;;;;6244041;28;20182;-58
2023/03/18 09:42:00;;;;;;;8.23;7.10;;;;;;;;;;6244495;28;20196;-58
2023/03/18 09:45:06;;;;;;;8.00;6.60;;;;;;;;;;6250478;28;20206;-58
2023/03/18 09:48:24;;;;;;;9.60;6.67;;;;;;;;;;6233615;28;20187;-58
2023/03/18 09:51:28;;;;;;;9.37;6.77;;;;;;;;;;6245128;28;20202;-57
2023/03/18 09:54:32;;;;;;;9.83;7.10;;;;;;;;;;6242151;28;20187;-58
2023/03/18 09:57:41;;;;;;;8.83;7.10;;;;;;;;;;6245125;28;20209;-57
2023/03/18 10:00:43;;;;;;;12.93;7.57;;;;;;;;;;6246069;28;20198;-57
2023/03/18 10:03:47;;;;;;;9.57;7.27;;;;;;;;;;6261158;28;20202;-58
2023/03/18 10:06:51;;;;;;;11.83;8.00;;;;;;;;;;6257113;28;20198;-58
2023/03/18 10:09:54;;;;;;;9.23;6.80;;;;;;;;;;6248474;28;20187;-58
2023/03/18 10:13:00;;;;;;;11.07;7.37;;;;;;;;;;6236640;28;20190;-58
2023/03/18 10:16:03;;;;;;;10.23;7.83;;;;;;;;;;6253246;28;20659;-58
2023/03/18 10:19:04;;;;;;;8.77;7.67;;;;;;;;;;6244623;28;20263;-58
2023/03/18 10:22:23;;;;;;;12.30;8.20;;;;;;;;;;6266561;28;20198;-57
2023/03/18 10:25:25;;;;;;;9.60;7.23;;;;;;;;;;6251118;28;20201;-57
2023/03/18 10:28:45;;;;;;;10.37;7.03;;;;;;;;;;6250726;28;20217;-57
2023/03/18 10:32:07;;;;;;;10.73;7.83;;;;;;;;;;6238487;28;20239;-55
2023/03/18 10:35:33;;;;;;;16.97;7.33;;;;;;;;;;6261012;28;20274;-53
2023/03/18 10:38:39;;;;;;;10.70;7.83;;;;;;;;;;6251688;28;20195;-54
2023/03/18 10:41:42;;;;;;;8.93;7.27;;;;;;;;;;6245074;28;20195;-55
2023/03/18 10:44:44;;;;;;;10.57;7.17;;;;;;;;;;6256983;28;20274;-57
2023/03/18 10:47:50;;;;;;;10.40;7.40;;;;;;;;;;6255077;28;20723;-58
2023/03/18 10:51:10;;;;;;;10.63;7.90;;;;;;;;;;6250820;28;20289;-57
2023/03/18 10:54:31;;;;;;;11.60;7.67;;;;;;;;;;6251436;28;20195;-57
2023/03/18 10:57:33;;;;;;;10.73;7.60;;;;;;;;;;6248589;28;20245;-58
2023/03/18 11:00:34;;;;;;;9.73;7.90;;;;;;;;;;6261506;28;20199;-57
2023/03/18 11:03:42;;;;;;;16.40;8.03;;;;;;;;;;6244383;28;20195;-55
2023/03/18 11:06:46;;;;;;;10.00;7.37;;;;;;;;;;6262370;28;20217;-56
2023/03/18 11:09:47;;;;;;;8.70;7.40;;;;;;;;;;6249482;28;20281;-55
2023/03/18 11:12:48;;;;;;;10.73;7.97;;;;;;;;;;6232607;28;20190;-56
2023/03/18 11:15:50;;;;;;;8.70;6.60;;;;;;;;;;6250926;28;20186;-57
2023/03/18 11:18:52;;;;;;;11.63;7.43;;;;;;;;;;6257513;28;20194;-56
2023/03/18 11:22:19;;;;;;;7.93;6.73;;;;;;;;;;6244964;28;20195;-54
2023/03/18 11:25:31;;;;;;;8.90;7.40;;;;;;;;;;6242257;28;20215;-52
2023/03/18 11:28:32;;;;;;;10.37;7.90;;;;;;;;;;6234295;28;20285;-50
2023/03/18 11:31:48;;;;;;;12.03;7.87;;;;;;;;;;6226425;28;20242;-53
2023/03/18 11:34:56;;;;;;;11.40;8.13;;;;;;;;;;6266278;28;20194;-52
2023/03/18 11:37:57;;;;;;;10.70;7.33;;;;;;;;;;6249898;28;20252;-50
2023/03/18 11:41:18;;;;;;;9.30;7.37;;;;;;;;;;6263330;28;20195;-50
2023/03/18 11:44:24;;;;;;;12.53;9.00;;;;;;;;;;6243134;28;20623;-54
2023/03/18 11:47:27;;;;;;;11.50;8.10;;;;;;;;;;6241603;28;20200;-49
2023/03/18 11:50:47;;;;;;;9.30;7.37;;;;;;;;;;6248577;28;20218;-52
2023/03/18 11:54:01;;;;;;;10.17;7.67;;;;;;;;;;6257758;28;20188;-51
2023/03/18 11:57:09;;;;;;;11.13;7.90;;;;;;;;;;6256674;28;20246;-54
2023/03/18 12:00:43;;;;;;;10.97;7.73;;;;;;;;;;6228346;28;20192;-54
2023/03/18 12:04:03;;;;;;;11.83;7.93;;;;;;;;;;6214807;28;20255;-54
2023/03/18 12:07:14;;;;;;;9.83;7.57;;;;;;;;;;6249680;28;20241;-49
2023/03/18 12:10:28;;;;;;;9.20;7.73;;;;;;;;;;6265616;28;20365;-48
2023/03/18 12:13:33;;;;;;;11.97;8.20;;;;;;;;;;6252143;28;20219;-51
2023/03/18 12:16:53;;;;;;;9.53;7.80;;;;;;;;;;6246429;28;20203;-48
2023/03/18 12:20:04;;;;;;;9.63;8.07;;;;;;;;;;6235660;28;20250;-47
2023/03/18 12:23:08;;;;;;;10.50;8.33;;;;;;;;;;6235060;28;20291;-46
2023/03/18 12:26:14;;;;;;;9.27;7.63;;;;;;;;;;6249943;28;20597;-47
2023/03/18 12:29:24;;;;;;;9.33;8.20;;;;;;;;;;6246100;28;20642;-47
2023/03/18 12:32:44;;;;;;;10.70;8.10;;;;;;;;;;6250724;28;20223;-47
2023/03/18 12:35:54;;;;;;;12.23;8.20;;;;;;;;;;6243259;28;20242;-46
2023/03/18 12:39:14;;;;;;;11.30;8.30;;;;;;;;;;6245779;28;20230;-53
2023/03/18 12:42:34;;;;;;;10.77;8.10;;;;;;;;;;6236698;28;20198;-49
2023/03/18 12:45:41;;;;;;;11.27;8.07;;;;;;;;;;6252150;28;20718;-51
2023/03/18 12:48:50;;;;;;;11.80;9.40;;;;;;;;;;6247848;28;20669;-50
2023/03/18 12:51:57;;;;;;;11.20;8.57;;;;;;;;;;6247655;28;20266;-51
2023/03/18 12:55:06;;;;;;;11.67;8.23;;;;;;;;;;6247092;28;20202;-55
2023/03/18 12:58:10;;;;;;;9.00;7.63;;;;;;;;;;6239717;28;20191;-55
2023/03/18 13:01:16;;;;;;;11.83;8.83;;;;;;;;;;6246695;28;20198;-56
2023/03/18 13:04:21;;;;;;;9.90;8.80;;;;;;;;;;6275850;28;20199;-56
2023/03/18 13:07:26;;;;;;;10.63;8.67;;;;;;;;;;6239648;28;20278;-55
2023/03/18 13:10:30;;;;;;;11.00;8.60;;;;;;;;;;6250883;28;20219;-54
2023/03/18 13:13:34;;;;;;;11.87;8.50;;;;;;;;;;6243992;28;20186;-54
2023/03/18 13:16:37;;;;;;;10.37;8.80;;;;;;;;;;6229419;28;20192;-55
2023/03/18 13:19:40;;;;;;;10.80;9.70;;;;;;;;;;6244396;28;20191;-56
2023/03/18 13:22:47;;;;;;;11.33;9.37;;;;;;;;;;6244794;28;20194;-56
2023/03/18 13:26:00;;;;;;;11.30;9.10;;;;;;;;;;6258572;28;20194;-55
2023/03/18 13:29:04;;;;;;;10.33;9.23;;;;;;;;;;6265572;28;20190;-55
2023/03/18 13:32:24;;;;;;;11.87;10.77;;;;;;;;;;6223232;28;20222;-53
2023/03/18 13:35:44;;;;;;;11.40;10.20;;;;;;;;;;6239441;28;20179;-55
2023/03/18 13:39:04;;;;;;;10.57;9.57;;;;;;;;;;6244814;28;20300;-56
2023/03/18 13:42:25;;;;;;;10.37;9.37;;;;;;;;;;6261661;28;20211;-56
2023/03/18 13:45:46;;;;;;;11.10;9.73;;;;;;;;;;6254991;28;20270;-55
2023/03/18 13:48:48;;;;;;;11.37;10.27;;;;;;;;;;6238887;28;20182;-52
2023/03/18 13:51:56;;;;;;;10.93;9.83;;;;;;;;;;6242389;28;20218;-55
2023/03/18 13:55:02;;;;;;;12.70;10.53;;;;;;;;;;6246347;28;20194;-54
2023/03/18 13:58:03;;;;;;;10.90;9.77;;;;;;;;;;6245148;28;20219;-54
2023/03/18 14:01:17;;;;;;;13.20;10.73;;;;;;;;;;6260914;28;20215;-55
2023/03/18 14:04:31;;;;;;;10.93;9.83;;;;;;;;;;6244018;28;20191;-50
2023/03/18 14:07:46;;;;;;;12.27;10.97;;;;;;;;;;6249842;28;20179;-48
2023/03/18 14:10:47;;;;;;;11.63;10.33;;;;;;;;;;6244366;28;20268;-53
2023/03/18 14:13:55;;;;;;;11.07;9.90;;;;;;;;;;6251924;28;20182;-54
2023/03/18 14:16:56;;;;;;;12.30;10.93;;;;;;;;;;6252765;28;20199;-51
2023/03/18 14:19:57;;;;;;;13.40;12.00;;;;;;;;;;6235244;28;20200;-53
2023/03/18 14:23:18;;;;;;;13.67;10.67;;;;;;;;;;6232522;28;20191;-53
2023/03/18 14:26:23;;;;;;;12.70;10.33;;;;;;;;;;6247849;28;20199;-51
2023/03/18 14:29:34;;;;;;;11.20;9.73;;;;;;;;;;6251283;28;20271;-50
2023/03/18 14:32:35;;;;;;;12.23;10.27;;;;;;;;;;6239089;28;20457;-53
2023/03/18 14:35:45;;;;;;;10.47;9.30;;;;;;;;;;6251717;28;20194;-52
2023/03/18 14:38:55;;;;;;;11.47;10.27;;;;;;;;;;6252238;28;20195;-49
2023/03/18 14:41:57;;;;;;;12.97;11.57;;;;;;;;;;6251172;28;20210;-55
2023/03/18 14:45:05;;;;;;;12.30;11.00;;;;;;;;;;6260085;28;20286;-53
2023/03/18 14:48:16;;;;;;;11.13;10.03;;;;;;;;;;6246164;28;20187;-54
2023/03/18 14:51:19;;;;;;;12.20;10.43;;;;;;;;;;6237813;28;20202;-54
2023/03/18 14:54:23;;;;;;;12.07;10.77;;;;;;;;;;6231932;28;20187;-54
2023/03/18 14:57:24;;;;;;;12.90;11.50;;;;;;;;;;6241702;28;20271;-55
2023/03/18 15:00:27;;;;;;;13.70;11.33;;;;;;;;;;6230689;28;20280;-56
2023/03/18 15:03:29;;;;;;;14.87;11.20;;;;;;;;;;6247839;28;20213;-55
2023/03/18 15:06:31;;;;;;;13.13;11.50;;;;;;;;;;6234998;28;20278;-56
2023/03/18 15:09:34;;;;;;;12.53;11.20;;;;;;;;;;6239178;28;20348;-55
2023/03/18 15:12:36;;;;;;;12.57;11.03;;;;;;;;;;6247028;28;20209;-52
2023/03/18 15:15:37;;;;;;;11.57;10.37;;;;;;;;;;6229569;28;20341;-51
2023/03/18 15:18:39;;;;;;;11.23;9.93;;;;;;;;;;6243191;28;20375;-52
2023/03/18 15:21:40;;;;;;;14.90;11.10;;;;;;;;;;6247956;28;20283;-54
2023/03/18 15:24:41;;;;;;;12.77;10.83;;;;;;;;;;6243546;28;20186;-51
2023/03/18 15:27:42;;;;;;;13.00;11.43;;;;;;;;;;6255335;28;20281;-53
2023/03/18 15:30:51;;;;;;;12.57;10.30;;;;;;;;;;6256262;28;20276;-51
2023/03/18 15:34:03;;;;;;;13.13;10.77;;;;;;;;;;6242105;28;20195;-52
2023/03/18 15:37:23;;;;;;;13.27;10.97;;;;;;;;;;6242355;28;20188;-55
2023/03/18 15:40:30;;;;;;;12.27;10.53;;;;;;;;;;6247387;28;20207;-55
2023/03/18 15:43:35;;;;;;;11.67;10.47;;;;;;;;;;6244815;28;20191;-58
2023/03/18 15:46:36;;;;;;;12.07;10.27;;;;;;;;;;6241706;28;20285;-54
2023/03/18 15:49:43;;;;;;;14.20;10.93;;;;;;;;;;6223035;28;20210;-51
2023/03/18 15:52:45;;;;;;;11.20;10.10;;;;;;;;;;6247123;28;20191;-49
2023/03/18 15:55:48;;;;;;;11.63;10.43;;;;;;;;;;6245497;28;20186;-51
2023/03/18 15:58:56;;;;;;;12.50;11.20;;;;;;;;;;6236023;28;20201;-50
2023/03/18 16:01:58;;;;;;;12.13;10.83;;;;;;;;;;6250887;28;20211;-53
2023/03/18 16:05:08;;;;;;;12.73;10.73;;;;;;;;;;6248583;28;20183;-52
2023/03/18 16:08:10;;;;;;;13.33;10.37;;;;;;;;;;6249049;28;20254;-55
2023/03/18 16:11:13;;;;;;;12.60;11.03;;;;;;;;;;6228388;28;20205;-54
2023/03/18 16:14:22;;;;;;;12.53;10.90;;;;;;;;;;6250249;28;20207;-54
2023/03/18 16:17:23;;;;;;;13.87;11.27;;;;;;;;;;6245651;28;20286;-51
2023/03/18 16:20:27;;;;;;;12.30;10.97;;;;;;;;;;6230197;28;20276;-51
2023/03/18 16:23:28;;;;;;;13.23;10.70;;;;;;;;;;6246134;28;20190;-55
2023/03/18 16:26:29;;;;;;;10.73;9.40;;;;;;;;;;6260879;28;20194;-55
2023/03/18 16:29:32;;;;;;;12.27;10.00;;;;;;;;;;6257824;28;20234;-56
2023/03/18 16:32:34;;;;;;;14.13;10.47;;;;;;;;;;6232369;28;20203;-57
2023/03/18 16:35:37;;;;;;;10.73;9.23;;;;;;;;;;6245540;28;20190;-57
2023/03/18 16:38:39;;;;;;;10.47;9.40;;;;;;;;;;6232629;28;20201;-57
2023/03/18 16:41:41;;;;;;;12.93;9.20;;;;;;;;;;6225418;28;20229;-57
2023/03/18 16:44:42;;;;;;;11.23;8.77;;;;;;;;;;6223572;28;20189;-57
2023/03/18 16:47:48;;;;;;;10.00;8.50;;;;;;;;;;6258598;28;20198;-57
2023/03/18 16:50:51;;;;;;;11.70;8.77;;;;;;;;;;6241596;28;20187;-57
2023/03/18 16:53:52;;;;;;;12.03;9.20;;;;;;;;;;6232157;28;20192;-57
2023/03/18 16:56:56;;;;;;;12.23;8.60;;;;;;;;;;6259272;28;20195;-56
2023/03/18 16:59:59;;;;;;;12.70;10.57;;;;;;;;;;6246158;28;20199;-56
2023/03/18 17:03:01;;;;;;;10.10;8.73;;;;;;;;;;6261985;28;20221;-56
2023/03/18 17:06:02;;;;;;;9.77;8.37;;;;;;;;;;6261988;28;20186;-56
2023/03/18 17:09:03;;;;;;;12.90;9.00;;;;;;;;;;6262653;28;20196;-56
2023/03/18 17:12:06;;;;;;;11.37;9.00;;;;;;;;;;6232033;28;20195;-56
2023/03/18 17:15:08;;;;;;;12.87;8.90;;;;;;;;;;6219274;28;20274;-58
2023/03/18 17:18:17;;;;;;;12.90;9.13;;;;;;;;;;6224180;28;20187;-57
2023/03/18 17:21:18;;;;;;;12.60;9.07;;;;;;;;;;6272989;28;20294;-57
2023/03/18 17:24:21;;;;;;;12.37;9.17;;;;;;;;;;6238462;28;20178;-57
2023/03/18 17:27:24;;;;;;;11.97;9.07;;;;;;;;;;6272588;28;20297;-57
2023/03/18 17:30:44;;;;;;;20.63;15.80;;;;;;;;;;6248068;28;20234;-57
2023/03/18 17:33:53;;;;;;;17.50;12.30;;;;;;;;;;6214468;28;20211;-57
2023/03/18 17:36:55;;;;;;;13.43;10.37;;;;;;;;;;6245927;28;20191;-56
2023/03/18 17:39:56;;;;;;;14.57;10.00;;;;;;;;;;6234452;28;20199;-57
2023/03/18 17:42:58;;;;;;;12.97;9.50;;;;;;;;;;6258993;28;20227;-57
2023/03/18 17:46:00;;;;;;;11.47;7.83;;;;;;;;;;6244489;28;20197;-56
2023/03/18 17:49:03;;;;;;;12.50;9.60;;;;;;;;;;6241283;28;20222;-57
2023/03/18 17:52:04;;;;;;;11.53;9.67;;;;;;;;;;6223190;28;20267;-57
2023/03/18 17:55:13;;;;;;;12.10;9.57;;;;;;;;;;6226763;28;20201;-57
2023/03/18 17:58:18;;;;;;;12.03;9.23;;;;;;;;;;6256144;28;20186;-56
2023/03/18 18:01:22;;;;;;;11.70;9.33;;;;;;;;;;6259415;28;20233;-55
2023/03/18 18:04:25;;;;;;;12.87;10.03;;;;;;;;;;6237082;28;20191;-50
2023/03/18 18:07:26;;;;;;;13.47;10.30;;;;;;;;;;6218076;28;20190;-56
2023/03/18 18:10:27;;;;;;;15.07;10.37;;;;;;;;;;6231374;28;20230;-56